createdAt,value
2019-01-21T00:00:16.303Z,101903.66
2019-01-21T00:02:44.919Z,101906.18
2019-01-21T00:05:13.497Z,101907.33
2019-01-21T00:07:42.035Z,101911.52
2019-01-21T00:10:10.678Z,101910.50
2019-01-21T00:12:39.215Z,101913.97
2019-01-21T00:15:09.127Z,101911.89
2019-01-21T00:17:37.664Z,101904.03
2019-01-21T00:20:07.345Z,101904.81
2019-01-21T00:22:35.834Z,101900.36
2019-01-21T00:25:05.753Z,101908.22
2019-01-21T00:27:34.460Z,101903.28
2019-01-21T00:30:03.075Z,101902.00
2019-01-21T00:32:31.659Z,101902.61
2019-01-21T00:35:00.203Z,101903.98
2019-01-21T00:37:28.766Z,101902.97
2019-01-21T00:39:57.349Z,101897.02
2019-01-21T00:42:26.211Z,101909.80
2019-01-21T00:44:54.679Z,101908.76
2019-01-21T00:47:29.686Z,101902.09
2019-01-21T00:49:53.483Z,101909.25
2019-01-21T00:52:21.954Z,101904.17
2019-01-21T00:54:51.100Z,101908.66
2019-01-21T00:57:19.842Z,101904.31
2019-01-21T00:59:48.360Z,101899.37
2019-01-21T01:02:17.000Z,101901.56
2019-01-21T01:04:45.675Z,101899.56
2019-01-21T01:07:14.203Z,101899.99
2019-01-21T01:09:42.701Z,101906.30
2019-01-21T01:12:11.319Z,101901.92
2019-01-21T01:14:39.789Z,101905.55
2019-01-21T01:17:08.545Z,101910.66
2019-01-21T01:19:37.139Z,101904.28
2019-01-21T01:22:05.594Z,101910.75
2019-01-21T01:24:34.082Z,101906.38
2019-01-21T01:27:02.913Z,101912.45
2019-01-21T01:29:31.384Z,101907.45
2019-01-21T01:32:00.167Z,101912.03
2019-01-21T01:34:28.678Z,101906.41
2019-01-21T01:36:57.611Z,101909.80
2019-01-21T01:39:26.402Z,101911.73
2019-01-21T01:41:54.901Z,101907.13
2019-01-21T01:44:23.538Z,101906.83
2019-01-21T01:46:52.015Z,101909.31
2019-01-21T01:49:20.805Z,101905.38
2019-01-21T01:51:49.605Z,101901.84
2019-01-21T01:54:18.301Z,101902.23
2019-01-21T01:56:47.082Z,101906.56
2019-01-21T01:59:15.719Z,101910.39
2019-01-21T02:01:44.236Z,101903.94
2019-01-21T02:04:12.812Z,101910.32
2019-01-21T02:06:41.324Z,101907.11
2019-01-21T02:09:09.967Z,101904.16
2019-01-21T02:11:38.821Z,101902.86
2019-01-21T02:14:07.400Z,101912.16
2019-01-21T02:16:35.981Z,101905.77
2019-01-21T02:19:04.644Z,101909.08
2019-01-21T02:21:34.054Z,101910.84
2019-01-21T02:24:04.993Z,101910.00
2019-01-21T02:26:34.420Z,101912.84
2019-01-21T02:29:08.581Z,101910.30
2019-01-21T02:32:13.213Z,101909.31
2019-01-21T02:34:53.492Z,101909.52
2019-01-21T02:37:30.792Z,101911.05
2019-01-21T02:40:17.317Z,101905.03
2019-01-21T02:43:03.588Z,101901.00
2019-01-21T02:45:51.566Z,101902.41
2019-01-21T02:48:29.175Z,101901.00
2019-01-21T02:51:20.175Z,101888.87
2019-01-21T02:54:00.507Z,101897.38
2019-01-21T02:56:34.808Z,101890.83
2019-01-21T02:59:12.544Z,101891.39
2019-01-21T03:01:49.822Z,101890.56
2019-01-21T03:04:27.212Z,101893.51
2019-01-21T03:06:58.857Z,101892.37
2019-01-21T03:09:36.310Z,101892.83
2019-01-21T03:12:13.604Z,101888.93
2019-01-21T03:15:00.051Z,101890.63
2019-01-21T03:17:42.728Z,101892.91
2019-01-21T03:20:32.436Z,101887.61
2019-01-21T03:23:22.173Z,101890.53
2019-01-21T03:26:17.580Z,101893.54
2019-01-21T03:28:52.033Z,101892.72
2019-01-21T03:31:32.390Z,101889.42
2019-01-21T03:34:15.828Z,101896.75
2019-01-21T03:36:56.189Z,101893.55
2019-01-21T03:39:56.108Z,101893.45
2019-01-21T03:42:42.180Z,101884.28
2019-01-21T03:45:36.336Z,101893.38
2019-01-21T03:48:07.898Z,101893.38
2019-01-21T03:50:42.451Z,101891.75
2019-01-21T03:53:19.828Z,101897.14
2019-01-21T03:55:50.931Z,101894.66
2019-01-21T03:58:28.344Z,101899.37
2019-01-21T04:01:14.955Z,101894.13
2019-01-21T04:04:01.195Z,101887.36
2019-01-21T04:06:32.758Z,101888.18
2019-01-21T04:09:16.204Z,101885.20
2019-01-21T04:11:48.060Z,101887.33
2019-01-21T04:14:22.944Z,101884.71
2019-01-21T04:17:27.431Z,101883.86
2019-01-21T04:20:18.267Z,101876.20
2019-01-21T04:22:52.487Z,101872.86
2019-01-21T04:25:30.392Z,101867.87
2019-01-21T04:28:16.832Z,101866.67
2019-01-21T04:30:54.296Z,101865.58
2019-01-21T04:33:43.896Z,101866.94
2019-01-21T04:36:33.214Z,101865.88
2019-01-21T04:39:10.847Z,101863.33
2019-01-21T04:42:03.359Z,101862.00
2019-01-21T04:44:37.896Z,101862.77
2019-01-21T04:47:21.747Z,101862.00
2019-01-21T04:50:08.603Z,101859.12
2019-01-21T04:52:49.800Z,101853.15
2019-01-21T04:55:42.542Z,101857.31
2019-01-21T04:58:38.270Z,101855.42
2019-01-21T05:01:12.359Z,101856.11
2019-01-21T05:03:46.535Z,101852.06
2019-01-21T05:06:30.006Z,101855.24
2019-01-21T05:09:04.725Z,101855.20
2019-01-21T05:11:39.336Z,101853.03
2019-01-21T05:14:26.004Z,101846.09
2019-01-21T05:17:12.447Z,101846.97
2019-01-21T05:19:46.721Z,101851.67
2019-01-21T05:22:27.427Z,101850.13
2019-01-21T05:25:21.291Z,101851.17
2019-01-21T05:27:58.741Z,101849.78
2019-01-21T05:30:55.348Z,101848.72
2019-01-21T05:33:36.372Z,101849.39
2019-01-21T05:36:23.285Z,101848.77
2019-01-21T05:38:57.670Z,101846.85
2019-01-21T05:41:51.290Z,101846.05
2019-01-21T05:44:46.788Z,101843.02
2019-01-21T05:47:37.672Z,101846.87
2019-01-21T05:50:33.240Z,101848.37
2019-01-21T05:53:19.844Z,101845.02
2019-01-21T05:56:13.670Z,101850.25
2019-01-21T05:59:09.394Z,101849.91
2019-01-21T06:01:57.181Z,101847.13
2019-01-21T06:04:46.677Z,101854.80
2019-01-21T06:07:28.417Z,101859.17
2019-01-21T06:10:14.828Z,101853.59
2019-01-21T06:12:55.117Z,101855.02
2019-01-21T06:15:35.748Z,101856.62
2019-01-21T06:18:19.562Z,101853.15
2019-01-21T06:20:54.405Z,101857.47
2019-01-21T06:23:28.935Z,101855.65
2019-01-21T06:26:09.316Z,101857.25
2019-01-21T06:28:56.826Z,101860.48
2019-01-21T06:31:28.455Z,101861.39
2019-01-21T06:34:23.816Z,101864.23
2019-01-21T06:37:01.072Z,101863.83
2019-01-21T06:39:38.422Z,101860.02
2019-01-21T06:42:12.885Z,101861.38
2019-01-21T06:44:50.101Z,101864.16
2019-01-21T06:47:33.567Z,101871.42
2019-01-21T06:50:13.986Z,101876.32
2019-01-21T06:53:05.437Z,101865.73
2019-01-21T06:55:42.849Z,101866.64
2019-01-21T06:58:20.453Z,101864.84
2019-01-21T07:01:13.048Z,101867.08
2019-01-21T07:03:50.356Z,101869.73
2019-01-21T07:06:25.056Z,101872.92
2019-01-21T07:09:17.907Z,101871.21
2019-01-21T07:12:14.749Z,101875.53
2019-01-21T07:14:55.114Z,101881.15
2019-01-21T07:17:39.060Z,101873.70
2019-01-21T07:20:22.619Z,101869.23
2019-01-21T07:22:54.306Z,101862.46
2019-01-21T07:25:37.682Z,101871.27
2019-01-21T07:28:12.410Z,101871.39
2019-01-21T07:31:02.073Z,101871.16
2019-01-21T07:33:48.653Z,101872.00
2019-01-21T07:36:36.391Z,101876.50
2019-01-21T07:39:22.988Z,101881.92
2019-01-21T07:42:06.326Z,101879.05
2019-01-21T07:44:43.476Z,101873.45
2019-01-21T07:47:20.826Z,101884.80
2019-01-21T07:49:55.004Z,101878.25
2019-01-21T07:52:32.422Z,101873.77
2019-01-21T07:55:31.079Z,101876.83
2019-01-21T07:58:24.907Z,101882.70
2019-01-21T08:01:08.339Z,101877.44
2019-01-21T08:04:08.165Z,101882.72
2019-01-21T08:06:42.314Z,101883.16
2019-01-21T08:09:19.634Z,101880.41
2019-01-21T08:12:25.525Z,101884.55
2019-01-21T08:15:01.700Z,101878.86
2019-01-21T08:17:45.022Z,101877.61
2019-01-21T08:20:19.274Z,101882.52
2019-01-21T08:23:06.986Z,101885.31
2019-01-21T08:25:47.382Z,101882.72
2019-01-21T08:28:19.047Z,101878.92
2019-01-21T08:30:56.379Z,101886.44
2019-01-21T08:33:33.922Z,101878.53
2019-01-21T08:36:18.938Z,101875.77
2019-01-21T08:39:15.870Z,101875.53
2019-01-21T08:41:50.414Z,101883.30
2019-01-21T08:44:39.653Z,101880.70
2019-01-21T08:47:31.204Z,101873.75
2019-01-21T08:50:18.794Z,101880.70
2019-01-21T08:52:59.541Z,101887.94
2019-01-21T08:55:33.965Z,101891.84
2019-01-21T08:58:17.270Z,101887.61
2019-01-21T09:01:08.163Z,101898.37
2019-01-21T09:03:54.595Z,101890.29
2019-01-21T09:06:26.251Z,101891.59
2019-01-21T09:09:04.855Z,101892.84
2019-01-21T09:11:57.092Z,101889.44
2019-01-21T09:14:45.093Z,101896.11
2019-01-21T09:17:22.817Z,101897.60
2019-01-21T09:20:10.801Z,101895.25
2019-01-21T09:23:17.129Z,101891.14
2019-01-21T09:25:57.607Z,101889.19
2019-01-21T09:29:01.695Z,101894.34
2019-01-21T09:31:38.847Z,101905.59
2019-01-21T09:34:22.568Z,101906.44
2019-01-21T09:37:10.593Z,101900.27
2019-01-21T09:39:51.053Z,101896.41
2019-01-21T09:42:31.485Z,101898.39
2019-01-21T09:45:08.991Z,101897.46
2019-01-21T09:47:36.395Z,101906.34
2019-01-21T09:50:06.011Z,101894.19
2019-01-21T09:52:34.702Z,101893.81
2019-01-21T09:55:03.375Z,101888.25
2019-01-21T09:57:33.450Z,101890.18
2019-01-21T10:00:03.041Z,101888.85
2019-01-21T10:02:33.480Z,101892.58
2019-01-21T10:05:02.543Z,101893.70
2019-01-21T10:07:33.193Z,101893.58
2019-01-21T10:10:33.104Z,101884.13
2019-01-21T10:13:38.979Z,101881.66
2019-01-21T10:16:28.885Z,101879.17
2019-01-21T10:19:16.906Z,101876.20
2019-01-21T10:22:03.714Z,101866.05
2019-01-21T10:24:56.295Z,101866.50
2019-01-21T10:27:45.693Z,101853.55
2019-01-21T10:30:41.150Z,101855.75
2019-01-21T10:33:34.155Z,101850.19
2019-01-21T10:36:28.358Z,101852.99
2019-01-21T10:39:09.334Z,101848.66
2019-01-21T10:41:42.842Z,101841.95
2019-01-21T10:44:28.370Z,101830.53
2019-01-21T10:47:09.017Z,101839.06
2019-01-21T10:49:46.345Z,101832.06
2019-01-21T10:52:23.931Z,101831.20
2019-01-21T10:55:01.433Z,101824.58
2019-01-21T10:57:56.017Z,101817.01
2019-01-21T11:00:48.779Z,101811.34
2019-01-21T11:03:26.119Z,101808.42
2019-01-21T11:06:00.312Z,101797.34
2019-01-21T11:08:49.495Z,101802.08
2019-01-21T11:11:32.908Z,101802.24
2019-01-21T11:14:20.738Z,101796.78
2019-01-21T11:17:10.146Z,101801.06
2019-01-21T11:19:47.650Z,101793.45
2019-01-21T11:22:19.638Z,101780.29
2019-01-21T11:24:53.849Z,101781.48
2019-01-21T11:27:28.273Z,101775.42
2019-01-21T11:30:19.665Z,101775.22
2019-01-21T11:32:51.404Z,101764.76
2019-01-21T11:35:34.911Z,101760.45
2019-01-21T11:38:06.558Z,101761.71
2019-01-21T11:40:44.119Z,101760.47
2019-01-21T11:43:24.821Z,101771.53
2019-01-21T11:46:11.491Z,101767.48
2019-01-21T11:48:49.128Z,101766.40
2019-01-21T11:51:46.234Z,101772.37
2019-01-21T11:54:20.884Z,101772.75
2019-01-21T11:56:58.419Z,101771.38
2019-01-21T11:59:36.194Z,101771.27
2019-01-21T12:02:24.591Z,101764.55
2019-01-21T12:04:56.331Z,101761.91
2019-01-21T12:07:33.471Z,101756.41
2019-01-21T12:10:24.312Z,101753.70
2019-01-21T12:13:16.635Z,101745.21
2019-01-21T12:15:57.297Z,101737.98
2019-01-21T12:18:28.944Z,101729.27
2019-01-21T12:21:12.544Z,101729.80
2019-01-21T12:23:46.976Z,101731.78
2019-01-21T12:26:39.446Z,101735.16
2019-01-21T12:29:13.576Z,101741.65
2019-01-21T12:31:51.158Z,101746.13
2019-01-21T12:34:28.516Z,101736.05
2019-01-21T12:37:00.213Z,101734.68
2019-01-21T12:39:57.303Z,101743.52
2019-01-21T12:42:29.035Z,101746.79
2019-01-21T12:45:09.464Z,101733.46
2019-01-21T12:47:53.087Z,101724.56
2019-01-21T12:50:42.941Z,101727.83
2019-01-21T12:53:45.906Z,101726.00
2019-01-21T12:56:42.225Z,101720.82
2019-01-21T12:59:43.790Z,101712.78
2019-01-21T13:02:24.078Z,101708.57
2019-01-21T13:04:55.859Z,101705.62
2019-01-21T13:07:33.181Z,101696.61
2019-01-21T13:10:21.129Z,101689.55
2019-01-21T13:13:09.079Z,101681.39
2019-01-21T13:15:52.613Z,101673.22
2019-01-21T13:18:33.502Z,101677.77
2019-01-21T13:21:10.958Z,101677.61
2019-01-21T13:23:42.510Z,101670.76
2019-01-21T13:26:14.199Z,101671.01
2019-01-21T13:28:45.859Z,101661.91
2019-01-21T13:31:26.324Z,101659.75
2019-01-21T13:34:03.985Z,101658.52
2019-01-21T13:36:41.057Z,101655.60
2019-01-21T13:39:27.538Z,101647.45
2019-01-21T13:42:04.877Z,101645.69
2019-01-21T13:48:09.896Z,101643.60
2019-01-21T13:50:41.589Z,101635.38
2019-01-21T13:53:21.994Z,101636.47
2019-01-21T13:56:18.912Z,101628.91
2019-01-21T13:59:06.174Z,101621.97
2019-01-21T14:02:06.105Z,101621.20
2019-01-21T14:05:00.367Z,101618.22
2019-01-21T14:07:47.257Z,101612.98
2019-01-21T14:10:29.642Z,101612.98
2019-01-21T14:13:07.408Z,101610.69
2019-01-21T14:15:42.088Z,101616.35
2019-01-21T14:18:30.002Z,101617.59
2019-01-21T14:21:22.817Z,101621.30
2019-01-21T14:23:57.829Z,101609.91
2019-01-21T14:27:05.273Z,101604.30
2019-01-21T14:29:42.830Z,101599.98
2019-01-21T14:32:23.483Z,101589.58
2019-01-21T14:34:57.995Z,101581.41
2019-01-21T14:37:44.603Z,101578.47
2019-01-21T14:40:34.412Z,101581.02
2019-01-21T14:43:17.771Z,101576.32
2019-01-21T14:45:58.567Z,101570.95
2019-01-21T14:48:32.757Z,101566.64
2019-01-21T14:51:07.346Z,101568.58
2019-01-21T14:53:47.911Z,101567.48
2019-01-21T14:56:46.569Z,101567.10
2019-01-21T14:59:28.728Z,101566.81
2019-01-21T15:02:05.964Z,101575.25
2019-01-21T15:04:53.962Z,101570.48
2019-01-21T15:07:25.690Z,101558.39
2019-01-21T15:10:21.076Z,101555.33
2019-01-21T15:12:55.377Z,101553.17
2019-01-21T15:15:38.802Z,101556.03
2019-01-21T15:18:13.224Z,101553.73
2019-01-21T15:21:03.056Z,101558.34
2019-01-21T15:23:40.349Z,101555.11
2019-01-21T15:26:20.974Z,101550.48
2019-01-21T15:28:58.515Z,101546.67
2019-01-21T15:31:40.354Z,101545.52
2019-01-21T15:34:19.139Z,101541.13
2019-01-21T15:36:59.591Z,101530.84
2019-01-21T15:39:53.954Z,101539.16
2019-01-21T15:42:32.048Z,101546.61
2019-01-21T15:45:25.459Z,101552.22
2019-01-21T15:51:21.054Z,101551.77
2019-01-21T15:54:06.101Z,101553.67
2019-01-21T15:56:50.173Z,101551.77
2019-01-21T15:59:34.212Z,101556.61
2019-01-21T16:02:13.932Z,101552.90
2019-01-21T16:05:00.196Z,101557.14
2019-01-21T16:07:46.209Z,101556.50
2019-01-21T16:10:47.763Z,101562.37
2019-01-21T16:16:35.487Z,101574.06
2019-01-21T16:19:22.319Z,101572.52
2019-01-21T16:22:15.095Z,101567.67
2019-01-21T16:25:37.695Z,101563.98
2019-01-21T16:28:24.924Z,101562.75
2019-01-21T16:31:05.038Z,101564.59
2019-01-21T16:37:08.837Z,101548.23
2019-01-21T16:39:52.192Z,101540.00
2019-01-21T16:42:19.036Z,101523.59
2019-01-21T16:44:47.727Z,101514.63
2019-01-21T16:47:16.504Z,101508.54
2019-01-21T16:49:45.358Z,101501.55
2019-01-21T16:52:13.984Z,101499.61
2019-01-21T16:54:42.815Z,101491.94
2019-01-21T17:00:13.042Z,101483.50
2019-01-21T17:02:41.497Z,101482.94
2019-01-21T17:05:13.615Z,101479.02
2019-01-21T17:07:47.849Z,101483.88
2019-01-21T17:10:39.086Z,101488.02
2019-01-21T17:13:00.109Z,101492.64
2019-01-21T17:15:28.730Z,101489.85
2019-01-21T17:17:57.453Z,101488.16
2019-01-21T17:20:26.051Z,101490.09
2019-01-21T17:23:31.714Z,101500.16
2019-01-21T17:25:54.740Z,101497.80
2019-01-21T17:28:23.350Z,101509.91
2019-01-21T17:30:52.266Z,101524.14
2019-01-21T17:33:20.995Z,101520.83
2019-01-21T17:35:49.535Z,101519.06
2019-01-21T17:38:18.039Z,101519.83
2019-01-21T17:40:46.621Z,101504.60
2019-01-21T17:43:15.087Z,101499.02
2019-01-21T17:45:43.734Z,101496.94
2019-01-21T17:48:12.335Z,101495.55
2019-01-21T17:50:40.994Z,101497.16
2019-01-21T17:53:10.062Z,101489.32
2019-01-21T17:55:42.980Z,101488.38
2019-01-21T17:58:11.467Z,101489.93
2019-01-21T18:00:40.038Z,101485.40
2019-01-21T18:03:08.691Z,101484.16
2019-01-21T18:05:37.661Z,101497.53
2019-01-21T18:08:06.133Z,101494.98
2019-01-21T18:10:34.735Z,101488.67
2019-01-21T18:13:19.838Z,101492.29
2019-01-21T18:15:50.484Z,101493.98
2019-01-21T18:18:19.090Z,101487.32
2019-01-21T18:20:47.678Z,101486.84
2019-01-21T18:23:16.276Z,101488.15
2019-01-21T18:25:45.151Z,101481.62
2019-01-21T18:28:13.621Z,101486.23
2019-01-21T18:30:44.376Z,101490.20
2019-01-21T18:33:13.253Z,101485.89
2019-01-21T18:35:42.146Z,101482.14
2019-01-21T18:38:10.898Z,101478.88
2019-01-21T18:40:39.537Z,101477.92
2019-01-21T18:43:18.763Z,101475.81
2019-01-21T18:45:56.204Z,101465.60
2019-01-21T18:48:24.843Z,101467.13
2019-01-21T18:51:02.363Z,101451.47
2019-01-21T18:53:29.693Z,101450.62
2019-01-21T18:55:58.911Z,101454.24
2019-01-21T18:58:27.487Z,101451.38
2019-01-21T19:00:56.867Z,101454.22
2019-01-21T19:03:42.014Z,101464.04
2019-01-21T19:06:10.718Z,101460.45
2019-01-21T19:08:39.843Z,101471.52
2019-01-21T19:11:08.393Z,101468.88
2019-01-21T19:13:37.037Z,101471.55
2019-01-21T19:16:05.729Z,101477.39
2019-01-21T19:18:34.300Z,101468.09
2019-01-21T19:21:02.782Z,101469.81
2019-01-21T19:23:31.453Z,101464.45
2019-01-21T19:26:00.130Z,101461.41
2019-01-21T19:28:29.383Z,101463.54
2019-01-21T19:30:58.030Z,101467.52
2019-01-21T19:33:28.127Z,101465.73
2019-01-21T19:35:58.082Z,101471.25
2019-01-21T19:38:28.918Z,101462.73
2019-01-21T19:40:57.690Z,101463.42
2019-01-21T19:43:26.217Z,101475.27
2019-01-21T19:45:54.951Z,101465.51
2019-01-21T19:48:23.480Z,101465.60
2019-01-21T19:50:52.036Z,101461.05
2019-01-21T19:53:24.996Z,101457.37
2019-01-21T19:55:53.565Z,101455.50
2019-01-21T19:58:25.432Z,101451.81
2019-01-21T20:00:54.007Z,101450.23
2019-01-21T20:03:22.631Z,101448.54
2019-01-21T20:05:51.532Z,101450.85
2019-01-21T20:08:20.155Z,101448.31
2019-01-21T20:10:48.739Z,101447.14
2019-01-21T20:13:18.237Z,101442.67
2019-01-21T20:15:46.965Z,101440.63
2019-01-21T20:18:17.042Z,101434.58
2019-01-21T20:20:46.941Z,101432.05
2019-01-21T20:23:16.501Z,101432.97
2019-01-21T20:25:45.339Z,101434.20
2019-01-21T20:28:15.292Z,101425.06
2019-01-21T20:30:44.195Z,101426.27
2019-01-21T20:33:12.744Z,101428.81
2019-01-21T20:35:57.363Z,101422.61
2019-01-21T20:38:28.881Z,101416.61
2019-01-21T20:41:00.630Z,101418.16
2019-01-21T20:43:29.235Z,101413.32
2019-01-21T20:45:57.844Z,101410.98
2019-01-21T20:48:26.494Z,101406.30
2019-01-21T20:50:55.142Z,101411.14
2019-01-21T20:53:25.265Z,101413.76
2019-01-21T20:55:53.869Z,101409.80
2019-01-21T20:58:22.428Z,101416.50
2019-01-21T21:00:54.271Z,101414.69
2019-01-21T21:03:22.870Z,101418.06
2019-01-21T21:05:54.082Z,101417.00
2019-01-21T21:08:22.757Z,101415.61
2019-01-21T21:10:51.615Z,101408.39
2019-01-21T21:13:20.277Z,101402.50
2019-01-21T21:15:48.892Z,101408.25
2019-01-21T21:18:18.935Z,101405.19
2019-01-21T21:20:47.449Z,101401.27
2019-01-21T21:23:15.973Z,101400.36
2019-01-21T21:25:44.596Z,101402.50
2019-01-21T21:28:13.182Z,101396.03
2019-01-21T21:30:41.751Z,101390.28
2019-01-21T21:33:10.377Z,101394.41
2019-01-21T21:35:39.337Z,101390.11
2019-01-21T21:38:07.964Z,101394.20
2019-01-21T21:40:36.522Z,101386.52
2019-01-21T21:43:05.234Z,101387.43
2019-01-21T21:45:34.133Z,101383.97
2019-01-21T21:48:02.799Z,101375.67
2019-01-21T21:50:31.860Z,101371.92
2019-01-21T21:53:00.837Z,101371.47
2019-01-21T21:55:30.029Z,101372.98
2019-01-21T21:57:59.000Z,101367.69
2019-01-21T22:00:28.784Z,101370.75
2019-01-21T22:02:57.418Z,101374.45
2019-01-21T22:05:26.644Z,101366.84
2019-01-21T22:07:55.265Z,101372.20
2019-01-21T22:10:27.489Z,101366.06
2019-01-21T22:12:56.109Z,101360.61
2019-01-21T22:15:25.401Z,101359.67
2019-01-21T22:17:55.591Z,101359.14
2019-01-21T22:20:25.067Z,101353.31
2019-01-21T22:22:53.649Z,101350.84
2019-01-21T22:25:24.034Z,101351.52
2019-01-21T22:27:52.678Z,101351.44
2019-01-21T22:30:25.712Z,101346.77
2019-01-21T22:32:54.557Z,101345.69
2019-01-21T22:35:23.466Z,101346.23
2019-01-21T22:37:52.078Z,101338.48
2019-01-21T22:40:22.089Z,101337.41
2019-01-21T22:42:52.462Z,101337.32
2019-01-21T22:45:21.355Z,101341.37
2019-01-21T22:47:50.809Z,101337.25
2019-01-21T22:50:19.663Z,101332.09
2019-01-21T22:52:48.195Z,101330.93
2019-01-21T22:55:17.187Z,101331.09
2019-01-21T22:57:45.832Z,101332.33
2019-01-21T23:00:17.491Z,101324.89
2019-01-21T23:02:46.311Z,101328.66
2019-01-21T23:05:14.928Z,101330.80
2019-01-21T23:07:43.594Z,101322.83
2019-01-21T23:10:12.134Z,101324.20
2019-01-21T23:12:40.691Z,101329.88
2019-01-21T23:15:09.868Z,101329.72
2019-01-21T23:17:38.792Z,101326.27
2019-01-21T23:20:10.101Z,101329.81
2019-01-21T23:22:38.717Z,101330.86
2019-01-21T23:25:08.114Z,101329.83
2019-01-21T23:27:37.030Z,101332.59
2019-01-21T23:30:20.583Z,101331.44
2019-01-21T23:32:49.145Z,101330.52
2019-01-21T23:35:18.238Z,101335.59
2019-01-21T23:37:46.811Z,101329.92
2019-01-21T23:40:15.598Z,101329.83
2019-01-21T23:42:45.787Z,101326.27
2019-01-21T23:45:14.590Z,101323.66
2019-01-21T23:47:43.291Z,101326.53
2019-01-21T23:50:13.924Z,101318.00
2019-01-21T23:52:43.070Z,101316.17
2019-01-21T23:55:12.680Z,101311.01
2019-01-21T23:57:41.293Z,101307.70
